createdAt,value
2023-01-05T00:01:07.580Z,28.8618
2023-01-05T00:06:09.498Z,19.38255
2023-01-05T00:11:11.126Z,14.73515
2023-01-05T00:16:12.842Z,9.11035
2023-01-05T00:21:14.493Z,5.20745
2023-01-05T00:26:16.087Z,2.32725
2023-01-05T00:31:17.781Z,0.88715
2023-01-05T00:36:19.402Z,0
2023-01-05T00:41:21.001Z,0
2023-01-05T00:46:22.782Z,0
2023-01-05T00:51:24.476Z,0
2023-01-05T00:56:26.076Z,0
2023-01-05T01:01:27.890Z,0
2023-01-05T01:06:29.700Z,0
2023-01-05T01:11:31.328Z,0
2023-01-05T01:16:33.093Z,0
2023-01-05T01:21:34.796Z,0
2023-01-05T01:26:36.444Z,0
2023-01-05T01:31:38.105Z,0
2023-01-05T01:36:39.788Z,0
2023-01-05T01:41:41.596Z,0
2023-01-05T01:46:43.221Z,0
2023-01-05T01:51:44.893Z,0
2023-01-05T01:56:46.526Z,0
2023-01-05T02:01:48.353Z,0
2023-01-05T02:06:50.025Z,0
2023-01-05T02:11:51.723Z,0
2023-01-05T02:16:53.421Z,0
2023-01-05T02:21:55.064Z,0
2023-01-05T02:26:56.703Z,0
2023-01-05T02:31:58.341Z,0
2023-01-05T02:37:00.099Z,0
2023-01-05T02:42:01.753Z,0
2023-01-05T02:47:03.396Z,0
2023-01-05T02:52:05.120Z,0
2023-01-05T02:57:06.775Z,0
2023-01-05T03:02:08.645Z,0
2023-01-05T03:07:10.401Z,0
2023-01-05T03:12:12.025Z,0
2023-01-05T03:17:13.723Z,0
2023-01-05T03:22:15.473Z,0
2023-01-05T03:27:17.106Z,0
2023-01-05T03:32:18.755Z,0
2023-01-05T03:37:20.440Z,0
2023-01-05T03:42:22.085Z,0
2023-01-05T03:47:23.762Z,0
2023-01-05T03:52:25.541Z,0
2023-01-05T03:57:27.207Z,0
2023-01-05T04:02:29.362Z,0
2023-01-05T04:07:31.143Z,0
2023-01-05T04:12:32.831Z,0
2023-01-05T04:17:34.558Z,0
2023-01-05T04:22:36.312Z,0
2023-01-05T04:27:37.910Z,0
2023-01-05T04:32:39.643Z,0
2023-01-05T04:37:41.292Z,0
2023-01-05T04:42:42.977Z,0
2023-01-05T04:47:44.622Z,0
2023-01-05T04:52:46.286Z,0
2023-01-05T04:57:47.897Z,0
2023-01-05T05:02:49.649Z,0
2023-01-05T05:07:51.396Z,0
2023-01-05T05:12:53.040Z,0
2023-01-05T05:17:54.652Z,0
2023-01-05T05:22:56.271Z,0
2023-01-05T05:27:57.961Z,0
2023-01-05T05:32:59.672Z,0
2023-01-05T05:38:01.467Z,0
2023-01-05T05:43:03.137Z,0
2023-01-05T05:48:04.738Z,0
2023-01-05T05:53:06.375Z,0
2023-01-05T05:58:08.150Z,0
2023-01-05T06:03:09.985Z,0
2023-01-05T06:08:11.680Z,0
2023-01-05T06:13:13.412Z,0
2023-01-05T06:18:15.103Z,0
2023-01-05T06:23:16.788Z,0
2023-01-05T06:28:20.411Z,0
2023-01-05T06:33:22.471Z,0
2023-01-05T06:38:24.147Z,0
2023-01-05T06:43:25.730Z,0
2023-01-05T06:48:27.383Z,0
2023-01-05T06:53:28.969Z,0
2023-01-05T06:58:30.609Z,0
2023-01-05T07:03:32.336Z,0
2023-01-05T07:08:33.978Z,0
2023-01-05T07:13:35.700Z,0
2023-01-05T07:18:37.303Z,0
2023-01-05T07:23:39.211Z,0
2023-01-05T07:28:40.826Z,0
2023-01-05T07:33:43.916Z,0
2023-01-05T07:38:45.528Z,0
2023-01-05T07:43:47.215Z,0
2023-01-05T07:48:48.819Z,0
2023-01-05T07:53:50.524Z,0
2023-01-05T07:58:52.217Z,0
2023-01-05T08:03:53.882Z,0
2023-01-05T08:08:55.645Z,0
2023-01-05T08:13:57.333Z,0
2023-01-05T08:18:59.007Z,0
2023-01-05T08:24:00.672Z,0
2023-01-05T08:29:02.456Z,0
2023-01-05T08:34:04.076Z,0
2023-01-05T08:39:05.758Z,0
2023-01-05T08:44:07.370Z,0
2023-01-05T08:49:09.017Z,0
2023-01-05T08:54:10.775Z,0
2023-01-05T08:59:12.407Z,0
2023-01-05T09:04:14.091Z,0
2023-01-05T09:09:15.821Z,0
2023-01-05T09:14:17.477Z,0
2023-01-05T09:19:19.116Z,0
2023-01-05T09:24:20.747Z,0
2023-01-05T09:29:22.613Z,0
2023-01-05T09:34:24.237Z,0
2023-01-05T09:39:25.865Z,0
2023-01-05T09:44:27.566Z,0
2023-01-05T09:49:29.210Z,0
2023-01-05T09:54:30.834Z,0
2023-01-05T09:59:32.474Z,0
2023-01-05T10:04:34.149Z,0
2023-01-05T10:09:35.864Z,0
2023-01-05T10:14:37.540Z,0
2023-01-05T10:19:39.387Z,0
2023-01-05T10:24:41.039Z,0
2023-01-05T10:29:42.660Z,0
2023-01-05T10:34:44.476Z,0
2023-01-05T10:39:48.560Z,0
2023-01-05T10:44:54.298Z,0
2023-01-05T10:49:55.939Z,0
2023-01-05T10:54:57.565Z,0
2023-01-05T10:59:59.202Z,0
2023-01-05T11:05:00.909Z,0
2023-01-05T11:10:02.599Z,0
2023-01-05T11:15:04.447Z,0
2023-01-05T11:20:06.072Z,0
2023-01-05T11:25:07.701Z,0
2023-01-05T11:30:09.314Z,0
2023-01-05T11:35:10.948Z,0
2023-01-05T11:40:12.612Z,0
2023-01-05T11:45:14.268Z,0
2023-01-05T11:50:15.955Z,0
2023-01-05T11:55:17.652Z,0
2023-01-05T12:00:19.293Z,0
2023-01-05T12:05:20.981Z,0
2023-01-05T12:10:22.577Z,0
2023-01-05T12:15:24.373Z,0
2023-01-05T12:20:26.032Z,0
2023-01-05T12:25:27.641Z,0
2023-01-05T12:36:00.977Z,0
2023-01-05T12:41:02.529Z,0
2023-01-05T12:46:04.329Z,0
2023-01-05T12:51:05.976Z,0
2023-01-05T12:56:07.634Z,0
2023-01-05T13:01:09.327Z,0
2023-01-05T13:06:11.057Z,0
2023-01-05T13:11:12.678Z,0
2023-01-05T13:16:14.373Z,0
2023-01-05T13:21:16.066Z,0
2023-01-05T13:26:17.704Z,0
2023-01-05T13:31:19.399Z,0
2023-01-05T13:36:21.094Z,0
2023-01-05T13:41:22.733Z,0
2023-01-05T13:46:24.384Z,0
2023-01-05T13:51:26.038Z,0
2023-01-05T13:56:27.677Z,0
2023-01-05T14:01:29.325Z,0
2023-01-05T14:06:31.053Z,0
2023-01-05T14:11:32.646Z,0
2023-01-05T14:16:34.433Z,0
2023-01-05T14:21:36.151Z,0
2023-01-05T14:26:37.761Z,0
2023-01-05T14:31:39.406Z,0
2023-01-05T14:36:41.043Z,0
2023-01-05T14:41:42.639Z,0
2023-01-05T14:46:44.282Z,0
2023-01-05T14:51:45.895Z,0
2023-01-05T14:56:47.504Z,0
2023-01-05T15:01:49.226Z,0
2023-01-05T15:06:51.206Z,0
2023-01-05T15:11:52.803Z,0
2023-01-05T15:16:54.470Z,0
2023-01-05T15:21:59.785Z,0.88715
2023-01-05T15:27:09.802Z,1.16185
2023-01-05T15:32:11.439Z,3.48555
2023-01-05T15:37:13.115Z,6.9711
2023-01-05T15:42:14.746Z,14.73515
2023-01-05T15:47:16.357Z,22.2699
2023-01-05T15:52:18.106Z,30.63215
2023-01-05T15:57:19.754Z,34.67105
2023-01-05T16:02:21.421Z,42.01105
2023-01-05T16:07:23.101Z,62.31585
2023-01-05T16:12:24.771Z,96.19395
2023-01-05T16:17:26.455Z,107.20395
2023-01-05T16:22:28.100Z,122.308
2023-01-05T16:27:29.736Z,132.9491
2023-01-05T16:32:31.443Z,174.2965
2023-01-05T16:37:33.086Z,161.51615
2023-01-05T16:42:34.948Z,183.5913
2023-01-05T16:47:36.655Z,205.0028
2023-01-05T16:52:46.349Z,243.5283
2023-01-05T16:57:48.669Z,249.33755
2023-01-05T17:02:50.284Z,287.01495
2023-01-05T17:07:52.089Z,302.67235
2023-01-05T17:12:53.644Z,261.8783
2023-01-05T17:17:55.208Z,275.8205
2023-01-05T17:22:57.088Z,269.3286
2023-01-05T17:27:58.774Z,208.22975
2023-01-05T17:33:00.444Z,249.57715
2023-01-05T17:38:02.134Z,237.1657
2023-01-05T17:43:03.743Z,280.099
2023-01-05T17:48:05.565Z,305.97345
2023-01-05T17:53:07.201Z,467.08455
2023-01-05T17:58:08.794Z,642.00855
2023-01-05T18:03:10.481Z,704.87775
2023-01-05T18:08:12.119Z,503.3415
2023-01-05T18:13:14.678Z,499.59735
2023-01-05T18:18:17.568Z,533.36515
2023-01-05T18:23:19.220Z,572.01995
2023-01-05T18:28:20.878Z,432.7444
2023-01-05T18:33:22.781Z,347.67075
2023-01-05T18:38:24.409Z,460.5185
2023-01-05T18:43:26.087Z,518.0025
2023-01-05T18:48:27.793Z,409.6177
2023-01-05T18:53:29.416Z,449.19475
2023-01-05T18:58:31.021Z,484.17955
2023-01-05T19:03:32.614Z,465.22105
2023-01-05T19:08:34.234Z,483.57105
2023-01-05T19:13:35.861Z,524.2358
2023-01-05T19:18:37.521Z,466.56735
2023-01-05T19:23:39.184Z,423.0807
2023-01-05T19:28:40.863Z,453.60255
2023-01-05T19:33:42.555Z,404.6204
2023-01-05T19:38:44.169Z,545.46285
2023-01-05T19:43:45.772Z,413.7859
2023-01-05T19:48:47.379Z,508.04405
2023-01-05T19:53:48.966Z,452.38555
2023-01-05T19:58:50.657Z,443.2752
2023-01-05T20:03:52.356Z,363.93665
2023-01-05T20:08:53.978Z,458.0655
2023-01-05T20:13:55.697Z,483.9951
2023-01-05T20:18:57.408Z,559.53435
2023-01-05T20:23:59.025Z,468.2274
2023-01-05T20:29:00.717Z,449.8774
2023-01-05T20:34:02.419Z,382.84
2023-01-05T20:39:04.080Z,384.7948
2023-01-05T20:44:05.715Z,418.8022
2023-01-05T20:49:07.341Z,515.8081
2023-01-05T20:54:08.925Z,550.6636
2023-01-05T20:59:10.511Z,360.5804
2023-01-05T21:04:12.136Z,525.3615
2023-01-05T21:09:13.758Z,462.17855
2023-01-05T21:14:15.384Z,414.2841
2023-01-05T21:19:17.396Z,447.97775
2023-01-05T21:24:19.032Z,411.40705
2023-01-05T21:29:20.665Z,465.7744
2023-01-05T21:34:22.292Z,640.38465
2023-01-05T21:39:23.909Z,757.3093
2023-01-05T21:44:25.544Z,826.87385
2023-01-05T21:49:27.152Z,936.34635
2023-01-05T21:54:28.761Z,850.55205
2023-01-05T21:59:30.395Z,908.3688
2023-01-05T22:04:32.039Z,708.9528
2023-01-05T22:09:33.813Z,492.6624
2023-01-05T22:14:35.411Z,336.0884
2023-01-05T22:19:37.032Z,299.7573
2023-01-05T22:24:38.678Z,302.17415
2023-01-05T22:29:40.340Z,310.9346
2023-01-05T22:34:41.956Z,450.6532
2023-01-05T22:39:43.597Z,445.58175
2023-01-05T22:44:45.263Z,334.3199
2023-01-05T22:49:46.935Z,297.6199
2023-01-05T22:54:48.605Z,245.871
2023-01-05T22:59:50.216Z,266.3051
2023-01-05T23:04:51.805Z,239.93245
2023-01-05T23:09:53.409Z,200.76045
2023-01-05T23:14:54.989Z,170.4782
2023-01-05T23:19:56.603Z,177.5976
2023-01-05T23:24:58.251Z,200.2261
2023-01-05T23:29:59.897Z,181.19345
2023-01-05T23:35:01.527Z,174.7757
2023-01-05T23:40:03.259Z,169.94385
2023-01-05T23:45:04.881Z,138.02055
2023-01-05T23:50:06.557Z,114.54395
2023-01-05T23:55:08.290Z,99.49505
